Time;durP1;ratioP1;P1;durP2;ratioP2;P2;SDS_P1;SDS_P2;PMS_P1;PMS_P2;Temp;Humidity;BMP_temperature;BMP_pressure;BME280_temperature;BME280_humidity;BME280_pressure;Samples;Min_cycle;Max_cycle;Signal;HPM_P1;HPM_P2
2022/08/09 00:01:26;;;;;;;16.25;8.07;;;;;;;;;;4965517;28;20023;-84
2022/08/09 00:03:52;;;;;;;14.70;8.27;;;;;;;;;;4942900;28;20061;-85
2022/08/09 00:06:18;;;;;;;13.57;7.97;;;;;;;;;;4952215;28;20038;-85
2022/08/09 00:08:47;;;;;;;12.75;7.88;;;;;;;;;;4961752;28;20506;-85
2022/08/09 00:11:13;;;;;;;12.55;7.68;;;;;;;;;;4971099;28;20023;-85
2022/08/09 00:13:39;;;;;;;14.32;8.48;;;;;;;;;;4964294;28;20027;-85
2022/08/09 00:16:05;;;;;;;15.57;8.98;;;;;;;;;;4951832;28;20039;-85
2022/08/09 00:18:32;;;;;;;12.20;9.18;;;;;;;;;;4953306;28;20023;-84
2022/08/09 00:20:58;;;;;;;13.75;8.52;;;;;;;;;;4957215;28;20097;-85
2022/08/09 00:23:24;;;;;;;10.68;9.00;;;;;;;;;;4968702;28;20030;-84
2022/08/09 00:25:50;;;;;;;17.05;9.25;;;;;;;;;;4967727;28;20053;-85
2022/08/09 00:28:18;;;;;;;12.20;9.20;;;;;;;;;;5030529;28;20159;-84
2022/08/09 00:30:44;;;;;;;13.88;8.77;;;;;;;;;;4968540;28;20083;-85
2022/08/09 00:33:10;;;;;;;14.82;8.95;;;;;;;;;;4956322;28;20051;-84
2022/08/09 00:35:36;;;;;;;12.57;8.88;;;;;;;;;;4967475;28;20038;-85
2022/08/09 00:38:02;;;;;;;12.10;8.60;;;;;;;;;;4953262;28;20042;-85
2022/08/09 00:40:28;;;;;;;10.95;8.50;;;;;;;;;;5031964;28;20117;-84
2022/08/09 00:42:54;;;;;;;15.15;8.95;;;;;;;;;;4967203;28;20114;-85
2022/08/09 00:45:19;;;;;;;15.55;9.52;;;;;;;;;;4964426;28;20110;-85
2022/08/09 00:47:46;;;;;;;12.07;8.60;;;;;;;;;;4970409;28;20046;-84
2022/08/09 00:50:12;;;;;;;14.68;8.90;;;;;;;;;;4965450;28;20045;-85
2022/08/09 00:52:38;;;;;;;14.05;9.13;;;;;;;;;;4967535;28;20396;-84
2022/08/09 00:55:04;;;;;;;18.17;9.40;;;;;;;;;;4952038;28;20023;-85
2022/08/09 00:57:31;;;;;;;11.98;9.90;;;;;;;;;;4961807;28;20039;-85
2022/08/09 00:59:57;;;;;;;16.48;9.93;;;;;;;;;;5031828;28;20029;-84
2022/08/09 01:02:25;;;;;;;12.75;8.95;;;;;;;;;;4970614;28;20050;-86
2022/08/09 01:05:04;;;;;;;15.32;9.68;;;;;;;;;;4965470;28;20031;-85
2022/08/09 01:07:30;;;;;;;16.40;9.90;;;;;;;;;;4959778;28;20026;-85
2022/08/09 01:10:04;;;;;;;18.70;9.32;;;;;;;;;;4974415;28;20019;-85
2022/08/09 01:12:31;;;;;;;19.73;9.75;;;;;;;;;;4968751;28;20041;-84
2022/08/09 01:15:05;;;;;;;17.13;10.45;;;;;;;;;;4952222;28;20027;-83
2022/08/09 01:17:33;;;;;;;18.15;10.55;;;;;;;;;;4963823;28;20054;-84
2022/08/09 01:20:01;;;;;;;18.67;12.23;;;;;;;;;;4951501;28;20403;-84
2022/08/09 01:22:27;;;;;;;13.88;10.02;;;;;;;;;;4975507;28;20031;-84
2022/08/09 01:24:54;;;;;;;16.35;10.30;;;;;;;;;;4967123;28;20051;-84
2022/08/09 01:27:22;;;;;;;15.40;10.50;;;;;;;;;;4964968;28;20388;-85
2022/08/09 01:30:01;;;;;;;16.00;9.57;;;;;;;;;;4948261;28;20037;-85
2022/08/09 01:32:35;;;;;;;17.17;10.02;;;;;;;;;;5040076;28;21678;-84
2022/08/09 01:35:02;;;;;;;16.58;11.00;;;;;;;;;;4964745;28;20114;-84
2022/08/09 01:37:29;;;;;;;16.52;11.18;;;;;;;;;;4945267;28;20072;-85
2022/08/09 01:39:57;;;;;;;18.73;11.85;;;;;;;;;;4952234;28;20031;-84
2022/08/09 01:42:23;;;;;;;19.92;12.73;;;;;;;;;;4968189;28;20222;-85
2022/08/09 01:44:49;;;;;;;22.60;13.25;;;;;;;;;;4966053;28;20030;-91
2022/08/09 01:47:15;;;;;;;20.40;12.82;;;;;;;;;;4965995;28;20449;-85
2022/08/09 01:49:42;;;;;;;25.38;12.88;;;;;;;;;;4964914;28;20022;-84
2022/08/09 01:52:11;;;;;;;22.67;13.60;;;;;;;;;;4965831;28;20034;-85
2022/08/09 01:54:43;;;;;;;20.98;13.57;;;;;;;;;;4964489;28;20160;-85
2022/08/09 01:57:20;;;;;;;23.25;13.20;;;;;;;;;;4965637;28;20112;-85
2022/08/09 01:59:48;;;;;;;17.80;13.75;;;;;;;;;;4966287;28;20034;-85
2022/08/09 02:02:15;;;;;;;24.02;15.15;;;;;;;;;;4973291;28;20070;-83
2022/08/09 02:04:41;;;;;;;22.27;13.57;;;;;;;;;;4965209;28;20037;-85
2022/08/09 02:07:10;;;;;;;25.70;14.18;;;;;;;;;;4965960;28;20039;-85
2022/08/09 02:09:42;;;;;;;20.83;13.90;;;;;;;;;;4963823;28;20069;-85
2022/08/09 02:12:09;;;;;;;20.98;14.00;;;;;;;;;;4964200;28;20049;-85
2022/08/09 02:14:37;;;;;;;26.98;13.90;;;;;;;;;;4964475;28;20038;-85
2022/08/09 02:17:03;;;;;;;26.48;14.52;;;;;;;;;;5034525;28;20026;-86
2022/08/09 02:19:29;;;;;;;22.30;15.27;;;;;;;;;;4947557;28;20027;-85
2022/08/09 02:21:58;;;;;;;31.60;15.25;;;;;;;;;;4963442;28;20027;-85
2022/08/09 02:24:26;;;;;;;28.73;15.80;;;;;;;;;;4944422;28;20117;-85
2022/08/09 02:26:54;;;;;;;27.90;16.40;;;;;;;;;;4967883;28;20050;-86
2022/08/09 02:29:23;;;;;;;30.23;15.52;;;;;;;;;;5029266;28;20122;-84
2022/08/09 02:31:50;;;;;;;29.20;16.15;;;;;;;;;;4953558;28;20026;-86
2022/08/09 02:34:21;;;;;;;28.17;16.50;;;;;;;;;;4968307;28;20039;-85
2022/08/09 02:36:50;;;;;;;28.63;15.52;;;;;;;;;;4948737;28;20360;-92
2022/08/09 02:39:18;;;;;;;31.45;16.90;;;;;;;;;;4951025;28;20037;-85
2022/08/09 02:41:47;;;;;;;28.65;17.55;;;;;;;;;;4949250;28;20027;-85
2022/08/09 02:44:19;;;;;;;36.22;17.90;;;;;;;;;;4951944;28;20495;-85
2022/08/09 02:46:46;;;;;;;43.60;17.90;;;;;;;;;;4965743;28;20030;-85
2022/08/09 02:49:14;;;;;;;42.50;18.17;;;;;;;;;;4943997;28;20415;-85
2022/08/09 02:51:42;;;;;;;35.42;18.60;;;;;;;;;;4966094;28;20042;-85
2022/08/09 02:54:10;;;;;;;31.65;18.83;;;;;;;;;;4965041;28;20035;-85
2022/08/09 02:56:37;;;;;;;34.85;19.13;;;;;;;;;;4964523;28;20058;-85
2022/08/09 02:59:05;;;;;;;38.97;17.98;;;;;;;;;;4944924;28;20106;-85
2022/08/09 03:01:32;;;;;;;36.17;18.55;;;;;;;;;;4962822;28;20051;-85
2022/08/09 03:04:00;;;;;;;33.08;18.73;;;;;;;;;;4951686;28;20043;-85
2022/08/09 03:06:27;;;;;;;39.10;20.00;;;;;;;;;;4947283;28;20050;-85
2022/08/09 03:08:53;;;;;;;35.53;19.13;;;;;;;;;;5029947;28;20252;-86
2022/08/09 03:11:20;;;;;;;35.50;17.75;;;;;;;;;;4964265;28;20102;-86
2022/08/09 03:13:47;;;;;;;39.22;20.08;;;;;;;;;;4966624;28;20123;-85
2022/08/09 03:16:19;;;;;;;44.10;19.55;;;;;;;;;;4965511;28;20061;-85
2022/08/09 03:18:48;;;;;;;39.47;18.95;;;;;;;;;;4965609;28;20089;-85
2022/08/09 03:21:15;;;;;;;41.50;20.33;;;;;;;;;;4952528;28;20041;-85
2022/08/09 03:23:46;;;;;;;41.13;19.98;;;;;;;;;;4964497;28;20030;-85
2022/08/09 03:26:13;;;;;;;39.50;20.30;;;;;;;;;;4963389;28;20038;-85
2022/08/09 03:28:40;;;;;;;40.65;20.52;;;;;;;;;;5035116;28;20038;-85
2022/08/09 03:31:06;;;;;;;41.92;20.38;;;;;;;;;;4950069;28;20032;-85
2022/08/09 03:33:33;;;;;;;36.00;19.58;;;;;;;;;;4962088;28;20163;-85
2022/08/09 03:35:59;;;;;;;40.22;20.17;;;;;;;;;;4963905;28;20030;-85
2022/08/09 03:38:25;;;;;;;43.65;20.25;;;;;;;;;;4932438;28;20091;-85
2022/08/09 03:40:51;;;;;;;49.13;19.40;;;;;;;;;;4959204;28;20110;-87
2022/08/09 03:43:17;;;;;;;38.72;18.38;;;;;;;;;;4964726;28;20075;-85
2022/08/09 03:45:43;;;;;;;36.63;18.23;;;;;;;;;;4962302;28;20066;-85
2022/08/09 03:48:09;;;;;;;39.67;19.25;;;;;;;;;;4966553;28;20492;-85
2022/08/09 03:50:35;;;;;;;35.88;19.63;;;;;;;;;;4962733;28;20035;-85
2022/08/09 03:53:02;;;;;;;38.63;19.50;;;;;;;;;;4966394;28;20172;-85
2022/08/09 03:55:28;;;;;;;41.22;19.50;;;;;;;;;;4931700;28;20050;-85
2022/08/09 03:57:56;;;;;;;46.53;20.80;;;;;;;;;;4960883;28;20027;-85
2022/08/09 04:00:22;;;;;;;45.95;20.67;;;;;;;;;;4948359;28;20027;-85
2022/08/09 04:02:49;;;;;;;52.80;21.60;;;;;;;;;;4945570;28;20134;-86
2022/08/09 04:05:15;;;;;;;55.45;22.48;;;;;;;;;;4961196;28;20150;-86
2022/08/09 04:07:41;;;;;;;53.53;22.85;;;;;;;;;;4962063;28;20027;-85
2022/08/09 04:10:07;;;;;;;55.20;23.02;;;;;;;;;;4965855;28;20035;-85
2022/08/09 04:12:37;;;;;;;56.75;22.85;;;;;;;;;;4944917;28;20396;-85
2022/08/09 04:15:03;;;;;;;50.28;23.00;;;;;;;;;;4963350;28;20030;-85
2022/08/09 04:17:29;;;;;;;51.22;23.42;;;;;;;;;;4964900;28;20048;-76
2022/08/09 04:19:56;;;;;;;54.78;22.75;;;;;;;;;;4945868;28;20035;-76
2022/08/09 04:22:22;;;;;;;51.13;22.17;;;;;;;;;;4966950;28;20402;-76
2022/08/09 04:24:48;;;;;;;54.10;22.40;;;;;;;;;;4967872;28;20113;-76
2022/08/09 04:27:14;;;;;;;47.03;20.15;;;;;;;;;;5033526;28;20039;-76
2022/08/09 04:29:40;;;;;;;53.92;22.27;;;;;;;;;;4965520;28;20031;-76
2022/08/09 04:32:06;;;;;;;61.67;23.05;;;;;;;;;;4969233;28;20027;-76
2022/08/09 04:34:34;;;;;;;62.42;24.70;;;;;;;;;;4967011;28;20069;-77
2022/08/09 04:37:01;;;;;;;57.70;23.67;;;;;;;;;;5030041;28;20035;-76
2022/08/09 04:39:27;;;;;;;57.92;24.10;;;;;;;;;;4970085;28;20442;-77
2022/08/09 04:41:53;;;;;;;61.47;23.98;;;;;;;;;;4966342;28;20105;-77
2022/08/09 04:44:19;;;;;;;48.05;22.65;;;;;;;;;;4955656;28;20034;-78
2022/08/09 04:46:45;;;;;;;43.65;21.92;;;;;;;;;;4963398;28;20047;-77
2022/08/09 04:49:11;;;;;;;46.78;21.88;;;;;;;;;;4966800;28;20035;-78
2022/08/09 04:51:37;;;;;;;41.92;20.98;;;;;;;;;;4970980;28;20071;-77
2022/08/09 04:54:03;;;;;;;34.92;18.95;;;;;;;;;;4964749;28;20043;-77
2022/08/09 04:56:29;;;;;;;34.63;18.23;;;;;;;;;;4966586;28;20492;-77
2022/08/09 04:58:56;;;;;;;26.20;15.85;;;;;;;;;;4966685;28;20209;-76
2022/08/09 05:01:22;;;;;;;27.10;16.40;;;;;;;;;;4968283;28;20041;-77
2022/08/09 05:03:48;;;;;;;24.58;14.77;;;;;;;;;;5031179;28;20038;-77
2022/08/09 05:06:14;;;;;;;24.15;12.85;;;;;;;;;;4965166;28;20046;-76
2022/08/09 05:08:40;;;;;;;18.77;12.77;;;;;;;;;;4969305;28;20030;-76
2022/08/09 05:11:06;;;;;;;21.67;12.98;;;;;;;;;;4969908;28;20114;-76
2022/08/09 05:13:33;;;;;;;18.23;13.05;;;;;;;;;;4972175;28;20392;-76
2022/08/09 05:15:59;;;;;;;25.08;12.05;;;;;;;;;;4969451;28;20023;-77
2022/08/09 05:18:28;;;;;;;18.25;11.43;;;;;;;;;;4953000;28;20036;-77
2022/08/09 05:20:55;;;;;;;27.80;12.75;;;;;;;;;;4956783;28;20169;-77
2022/08/09 05:23:21;;;;;;;20.88;12.25;;;;;;;;;;4960418;28;20019;-76
2022/08/09 05:25:47;;;;;;;13.77;10.60;;;;;;;;;;4951931;28;20928;-77
2022/08/09 05:28:13;;;;;;;16.48;10.13;;;;;;;;;;4969804;28;20042;-76
2022/08/09 05:30:39;;;;;;;18.38;10.05;;;;;;;;;;4970655;28;20027;-76
2022/08/09 05:33:05;;;;;;;18.42;10.07;;;;;;;;;;4969776;28;20507;-77
2022/08/09 05:35:31;;;;;;;13.95;8.93;;;;;;;;;;4969209;28;20034;-77
2022/08/09 05:37:57;;;;;;;14.40;8.93;;;;;;;;;;4959943;28;20031;-77
2022/08/09 05:40:25;;;;;;;16.63;9.82;;;;;;;;;;4984346;28;20027;-77
2022/08/09 05:42:51;;;;;;;22.83;9.07;;;;;;;;;;4937561;28;20015;-81
2022/08/09 05:45:17;;;;;;;14.45;8.98;;;;;;;;;;5020218;28;20496;-77
2022/08/09 05:47:43;;;;;;;16.33;8.57;;;;;;;;;;4985547;28;20035;-77
2022/08/09 05:50:09;;;;;;;16.48;8.45;;;;;;;;;;4951909;28;20037;-78
2022/08/09 05:52:35;;;;;;;23.92;8.88;;;;;;;;;;4968240;28;20456;-77
2022/08/09 05:55:01;;;;;;;17.85;7.00;;;;;;;;;;4970199;28;20031;-77
2022/08/09 05:57:27;;;;;;;20.23;8.32;;;;;;;;;;4997442;28;20057;-78
2022/08/09 05:59:53;;;;;;;10.30;7.20;;;;;;;;;;4969341;28;20035;-77
2022/08/09 06:02:19;;;;;;;13.07;7.70;;;;;;;;;;4969309;28;20035;-78
2022/08/09 06:04:45;;;;;;;12.50;7.28;;;;;;;;;;4961852;28;20080;-77
2022/08/09 06:07:11;;;;;;;13.30;7.60;;;;;;;;;;4967416;28;20122;-78
2022/08/09 06:09:37;;;;;;;14.25;7.55;;;;;;;;;;4960807;28;20418;-78
2022/08/09 06:12:04;;;;;;;16.75;7.38;;;;;;;;;;4966346;28;20029;-78
2022/08/09 06:14:30;;;;;;;21.45;8.38;;;;;;;;;;4968429;28;20030;-77
2022/08/09 06:16:56;;;;;;;16.40;7.47;;;;;;;;;;5033302;28;20042;-77
2022/08/09 06:19:22;;;;;;;12.80;6.75;;;;;;;;;;4966018;28;20035;-77
2022/08/09 06:21:48;;;;;;;23.02;6.60;;;;;;;;;;4960761;28;20435;-76
2022/08/09 06:24:14;;;;;;;15.77;7.05;;;;;;;;;;5037605;28;20049;-76
2022/08/09 06:26:40;;;;;;;19.77;6.70;;;;;;;;;;4967574;28;20030;-77
2022/08/09 06:29:07;;;;;;;14.98;7.00;;;;;;;;;;5016523;28;20034;-76
2022/08/09 06:31:34;;;;;;;14.77;7.28;;;;;;;;;;4965359;28;20035;-77
2022/08/09 06:34:00;;;;;;;11.93;6.68;;;;;;;;;;4966860;28;20031;-77
2022/08/09 06:36:27;;;;;;;17.10;7.55;;;;;;;;;;4974189;28;20433;-77
2022/08/09 06:38:53;;;;;;;11.77;6.13;;;;;;;;;;4967842;28;20213;-76
2022/08/09 06:41:19;;;;;;;13.25;5.88;;;;;;;;;;5067216;28;20077;-77
2022/08/09 06:43:45;;;;;;;15.43;6.05;;;;;;;;;;4973822;28;20030;-76
2022/08/09 06:46:11;;;;;;;15.45;6.22;;;;;;;;;;4967263;28;20079;-76
2022/08/09 06:48:39;;;;;;;16.80;5.57;;;;;;;;;;4968846;28;20418;-77
2022/08/09 06:51:05;;;;;;;19.45;5.63;;;;;;;;;;4966670;28;20035;-77
2022/08/09 06:53:31;;;;;;;10.02;5.65;;;;;;;;;;4966287;28;20035;-76
2022/08/09 06:55:59;;;;;;;11.80;5.20;;;;;;;;;;4967793;28;20092;-76
2022/08/09 06:58:25;;;;;;;12.93;5.18;;;;;;;;;;4961651;28;20095;-76
2022/08/09 07:00:51;;;;;;;11.82;5.45;;;;;;;;;;4962501;28;20443;-77
2022/08/09 07:03:18;;;;;;;15.20;6.78;;;;;;;;;;5010876;28;20137;-77
2022/08/09 07:05:44;;;;;;;11.65;5.78;;;;;;;;;;4967524;28;20122;-77
2022/08/09 07:08:10;;;;;;;11.68;5.75;;;;;;;;;;4962355;28;20036;-77
2022/08/09 07:10:36;;;;;;;13.40;5.75;;;;;;;;;;5032901;28;20121;-76
2022/08/09 07:13:02;;;;;;;13.52;5.18;;;;;;;;;;4961617;28;20772;-76
2022/08/09 07:15:28;;;;;;;14.65;4.95;;;;;;;;;;5034652;28;20031;-77
2022/08/09 07:17:54;;;;;;;13.15;5.15;;;;;;;;;;4971006;28;20031;-76
2022/08/09 07:20:20;;;;;;;8.43;4.72;;;;;;;;;;5064845;28;20097;-76
2022/08/09 07:23:05;;;;;;;8.05;4.82;;;;;;;;;;4971619;28;20531;-78
2022/08/09 07:25:31;;;;;;;13.95;4.97;;;;;;;;;;4967479;28;20100;-77
2022/08/09 07:27:57;;;;;;;16.08;4.75;;;;;;;;;;4966010;28;20033;-77
2022/08/09 07:30:25;;;;;;;9.38;4.72;;;;;;;;;;4967079;28;20062;-76
2022/08/09 07:32:51;;;;;;;8.98;4.63;;;;;;;;;;4967580;28;20141;-84
2022/08/09 07:35:17;;;;;;;13.40;5.15;;;;;;;;;;4969871;28;20102;-76
2022/08/09 07:37:44;;;;;;;8.48;4.57;;;;;;;;;;4981712;28;20548;-76
2022/08/09 07:40:10;;;;;;;8.95;4.85;;;;;;;;;;5040624;28;20072;-76
2022/08/09 07:42:53;;;;;;;14.20;5.43;;;;;;;;;;4969313;28;20063;-76
2022/08/09 07:45:24;;;;;;;9.68;5.18;;;;;;;;;;4974066;28;20586;-76
2022/08/09 07:47:50;;;;;;;;;;;;;;;;;;4967044;28;20019;-76
2022/08/09 07:50:16;;;;;;;10.70;4.35;;;;;;;;;;5029893;28;19917;-76
2022/08/09 07:52:42;;;;;;;12.15;4.43;;;;;;;;;;4967553;28;20041;-76
2022/08/09 07:55:08;;;;;;;11.18;4.68;;;;;;;;;;5044582;28;20101;-77
2022/08/09 07:57:34;;;;;;;13.07;4.45;;;;;;;;;;4968890;28;20391;-77
2022/08/09 08:00:00;;;;;;;12.32;3.47;;;;;;;;;;4970104;28;20455;-77
2022/08/09 08:02:26;;;;;;;10.68;3.92;;;;;;;;;;4971454;28;20121;-77
2022/08/09 08:04:52;;;;;;;6.57;3.78;;;;;;;;;;4954801;28;20039;-77
2022/08/09 08:07:18;;;;;;;8.40;3.72;;;;;;;;;;4971131;28;20037;-77
2022/08/09 08:09:44;;;;;;;5.70;3.20;;;;;;;;;;4953918;28;20035;-75
2022/08/09 08:12:10;;;;;;;7.57;3.55;;;;;;;;;;4972992;28;20484;-76
2022/08/09 08:14:36;;;;;;;10.30;3.28;;;;;;;;;;5036888;28;20487;-77
2022/08/09 08:17:02;;;;;;;9.98;2.88;;;;;;;;;;4971234;28;20064;-76
2022/08/09 08:19:28;;;;;;;6.13;3.08;;;;;;;;;;4971549;28;20419;-77
2022/08/09 08:21:54;;;;;;;10.05;2.20;;;;;;;;;;4970329;28;20031;-77
2022/08/09 08:24:20;;;;;;;7.43;2.00;;;;;;;;;;4971323;28;20081;-77
2022/08/09 08:26:46;;;;;;;3.83;1.90;;;;;;;;;;4972192;28;20031;-77
2022/08/09 08:29:13;;;;;;;7.50;2.95;;;;;;;;;;4970265;28;20047;-77
2022/08/09 08:31:39;;;;;;;4.22;2.33;;;;;;;;;;4971270;28;20042;-77
2022/08/09 08:34:05;;;;;;;6.00;2.60;;;;;;;;;;4954053;28;20052;-77
2022/08/09 08:36:31;;;;;;;5.10;1.90;;;;;;;;;;4971196;28;20038;-77
2022/08/09 08:38:58;;;;;;;9.32;2.10;;;;;;;;;;4961438;28;20030;-77
2022/08/09 08:41:24;;;;;;;5.43;2.10;;;;;;;;;;4978027;28;20058;-77
2022/08/09 08:43:50;;;;;;;5.40;1.60;;;;;;;;;;4976934;28;20034;-79
2022/08/09 08:46:17;;;;;;;5.20;1.20;;;;;;;;;;4970568;28;20544;-76
2022/08/09 08:48:43;;;;;;;4.85;1.58;;;;;;;;;;4952847;28;20049;-77
2022/08/09 08:51:09;;;;;;;4.85;1.20;;;;;;;;;;4969586;28;20059;-76
2022/08/09 08:53:35;;;;;;;4.75;1.10;;;;;;;;;;4970486;28;20038;-78
2022/08/09 08:56:01;;;;;;;3.67;1.10;;;;;;;;;;4969560;28;20031;-75
2022/08/09 08:58:28;;;;;;;6.18;1.48;;;;;;;;;;4973423;28;20114;-76
2022/08/09 09:00:56;;;;;;;5.22;1.40;;;;;;;;;;4954442;28;20073;-75
2022/08/09 09:03:23;;;;;;;4.20;1.30;;;;;;;;;;4966100;28;20527;-75
2022/08/09 09:05:49;;;;;;;5.18;1.33;;;;;;;;;;4950032;29;20061;-76
2022/08/09 09:08:18;;;;;;;4.80;1.30;;;;;;;;;;4936672;28;20039;-75
2022/08/09 09:10:44;;;;;;;9.48;1.73;;;;;;;;;;4968637;28;20143;-76
2022/08/09 09:13:10;;;;;;;11.02;1.40;;;;;;;;;;4944201;28;20038;-75
2022/08/09 09:15:37;;;;;;;6.32;0.90;;;;;;;;;;4972436;28;20074;-75
2022/08/09 09:18:03;;;;;;;4.22;1.00;;;;;;;;;;4988387;28;20473;-75
2022/08/09 09:20:32;;;;;;;9.13;1.20;;;;;;;;;;4954889;28;20027;-76
2022/08/09 09:22:59;;;;;;;7.10;1.40;;;;;;;;;;4949872;28;20027;-76
2022/08/09 09:25:33;;;;;;;4.57;1.00;;;;;;;;;;5022219;28;20039;-76
2022/08/09 09:28:00;;;;;;;4.10;1.10;;;;;;;;;;4968628;28;20078;-76
2022/08/09 09:30:26;;;;;;;8.80;1.33;;;;;;;;;;4980961;28;20031;-76
2022/08/09 09:33:02;;;;;;;6.10;1.25;;;;;;;;;;4969453;28;20041;-76
2022/08/09 09:35:28;;;;;;;6.93;1.15;;;;;;;;;;5017037;28;20027;-76
2022/08/09 09:37:54;;;;;;;5.40;1.27;;;;;;;;;;5029598;28;20479;-76
2022/08/09 09:40:20;;;;;;;4.75;1.20;;;;;;;;;;4964650;28;20041;-75
2022/08/09 09:42:56;;;;;;;6.00;1.25;;;;;;;;;;4982640;28;20023;-75
2022/08/09 09:45:22;;;;;;;5.13;1.40;;;;;;;;;;4971448;28;20043;-76
2022/08/09 09:47:48;;;;;;;7.97;1.80;;;;;;;;;;4963846;28;20038;-77
2022/08/09 09:50:21;;;;;;;3.72;1.30;;;;;;;;;;4952265;28;20026;-75
2022/08/09 09:52:51;;;;;;;6.07;1.20;;;;;;;;;;4947708;28;20039;-78
2022/08/09 09:55:17;;;;;;;4.13;1.23;;;;;;;;;;4959721;28;20034;-78
2022/08/09 09:57:56;;;;;;;6.05;1.83;;;;;;;;;;4951065;28;20051;-76
2022/08/09 10:00:23;;;;;;;2.63;1.23;;;;;;;;;;4962553;28;20153;-75
2022/08/09 10:02:49;;;;;;;5.45;1.17;;;;;;;;;;4962886;28;20051;-77
2022/08/09 10:05:15;;;;;;;5.20;1.23;;;;;;;;;;5029299;28;20046;-76
2022/08/09 10:07:41;;;;;;;4.15;0.80;;;;;;;;;;4967118;28;20130;-76
2022/08/09 10:10:07;;;;;;;3.47;0.80;;;;;;;;;;4966080;28;20118;-75
2022/08/09 10:12:37;;;;;;;2.45;1.00;;;;;;;;;;4963911;28;20030;-76
2022/08/09 10:15:14;;;;;;;4.10;0.93;;;;;;;;;;4963238;28;20165;-77
2022/08/09 10:17:40;;;;;;;6.65;1.15;;;;;;;;;;4954744;28;20479;-77
2022/08/09 10:20:21;;;;;;;5.88;1.38;;;;;;;;;;4959791;28;20031;-77
2022/08/09 10:22:48;;;;;;;3.05;0.80;;;;;;;;;;4968879;28;20034;-80
2022/08/09 10:25:14;;;;;;;3.38;0.90;;;;;;;;;;4965458;28;20031;-76
2022/08/09 10:27:44;;;;;;;4.47;0.90;;;;;;;;;;4936050;28;20430;-76
2022/08/09 10:30:11;;;;;;;2.65;0.60;;;;;;;;;;4967105;28;20027;-76
2022/08/09 10:32:37;;;;;;;2.55;0.90;;;;;;;;;;4965772;28;20038;-76
2022/08/09 10:35:04;;;;;;;1.63;0.60;;;;;;;;;;4964117;28;20130;-77
2022/08/09 10:37:31;;;;;;;6.13;0.80;;;;;;;;;;4962791;28;20034;-76
2022/08/09 10:39:58;;;;;;;4.30;0.85;;;;;;;;;;4967301;28;20019;-76
2022/08/09 10:42:24;;;;;;;2.90;0.70;;;;;;;;;;4969728;28;20042;-76
2022/08/09 10:44:54;;;;;;;6.75;0.75;;;;;;;;;;4952920;28;20106;-77
2022/08/09 10:47:20;;;;;;;;;;;;;;;;;;4967273;28;20042;-76
2022/08/09 10:50:04;;;;;;;4.53;1.05;;;;;;;;;;4965127;28;19917;-76
2022/08/09 10:52:39;;;;;;;2.47;1.02;;;;;;;;;;4964405;28;20031;-76
2022/08/09 10:55:23;;;;;;;5.28;0.93;;;;;;;;;;4961613;28;20484;-75
2022/08/09 10:57:49;;;;;;;10.95;1.40;;;;;;;;;;4962008;28;20027;-76
2022/08/09 11:00:34;;;;;;;3.22;0.95;;;;;;;;;;4966913;28;20084;-76
2022/08/09 11:03:00;;;;;;;2.58;0.80;;;;;;;;;;4966271;28;20038;-76
2022/08/09 11:05:26;;;;;;;3.35;0.50;;;;;;;;;;4964954;28;20027;-76
2022/08/09 11:07:52;;;;;;;7.93;0.68;;;;;;;;;;4944363;28;20038;-76
2022/08/09 11:10:44;;;;;;;1.23;0.70;;;;;;;;;;5029418;28;20038;-76
2022/08/09 11:13:14;;;;;;;3.42;0.93;;;;;;;;;;4963418;28;20039;-76
2022/08/09 11:15:40;;;;;;;3.75;0.90;;;;;;;;;;4966222;28;20391;-76
2022/08/09 11:18:06;;;;;;;2.55;0.80;;;;;;;;;;4962025;28;20183;-76
2022/08/09 11:20:44;;;;;;;4.85;0.85;;;;;;;;;;4948626;28;20476;-77
2022/08/09 11:23:12;;;;;;;6.43;0.98;;;;;;;;;;4953274;28;20038;-76
2022/08/09 11:25:39;;;;;;;4.95;0.77;;;;;;;;;;4968364;28;20050;-76
2022/08/09 11:28:24;;;;;;;4.03;0.85;;;;;;;;;;4962589;28;20070;-76
2022/08/09 11:30:50;;;;;;;11.13;1.10;;;;;;;;;;4955026;28;20060;-78
2022/08/09 11:33:19;;;;;;;11.00;1.80;;;;;;;;;;4978156;28;20402;-76
2022/08/09 11:35:55;;;;;;;12.25;0.90;;;;;;;;;;4983689;28;20437;-76
2022/08/09 11:38:28;;;;;;;5.95;1.20;;;;;;;;;;4954170;28;20799;-76
2022/08/09 11:40:55;;;;;;;3.40;1.23;;;;;;;;;;4972139;28;20023;-77
2022/08/09 11:43:27;;;;;;;5.03;0.95;;;;;;;;;;4971679;28;20114;-76
2022/08/09 11:45:54;;;;;;;4.05;1.20;;;;;;;;;;4970777;28;20038;-76
2022/08/09 11:48:23;;;;;;;8.07;0.60;;;;;;;;;;4970941;28;20122;-76
2022/08/09 11:50:59;;;;;;;5.60;0.90;;;;;;;;;;4970538;28;20026;-76
2022/08/09 11:53:26;;;;;;;16.45;2.22;;;;;;;;;;4971186;28;20050;-76
2022/08/09 11:55:53;;;;;;;10.55;1.25;;;;;;;;;;4981911;28;20278;-77
2022/08/09 11:58:19;;;;;;;7.03;0.90;;;;;;;;;;5038611;28;20035;-76
2022/08/09 12:00:51;;;;;;;3.80;0.90;;;;;;;;;;4972690;28;20504;-76
2022/08/09 12:03:18;;;;;;;25.27;1.73;;;;;;;;;;4953902;28;20054;-76
2022/08/09 12:05:44;;;;;;;6.68;1.20;;;;;;;;;;4979620;28;20027;-77
2022/08/09 12:08:11;;;;;;;15.75;1.65;;;;;;;;;;4970806;28;20034;-76
2022/08/09 12:10:42;;;;;;;4.20;0.70;;;;;;;;;;4971584;28;20058;-76
2022/08/09 12:13:08;;;;;;;1.83;0.73;;;;;;;;;;4963092;28;20064;-76
2022/08/09 12:15:34;;;;;;;6.13;0.90;;;;;;;;;;4950691;28;20039;-77
2022/08/09 12:18:00;;;;;;;6.55;0.77;;;;;;;;;;5035139;28;20046;-76
2022/08/09 12:20:29;;;;;;;2.47;0.50;;;;;;;;;;4970041;28;20027;-76
2022/08/09 12:22:57;;;;;;;2.25;0.80;;;;;;;;;;4971983;28;20015;-76
2022/08/09 12:25:23;;;;;;;2.58;0.80;;;;;;;;;;4953587;28;20046;-75
2022/08/09 12:28:07;;;;;;;2.58;0.90;;;;;;;;;;4970196;28;20035;-75
2022/08/09 12:30:33;;;;;;;2.42;1.05;;;;;;;;;;4970135;28;20038;-76
2022/08/09 12:33:03;;;;;;;6.05;0.82;;;;;;;;;;4971359;28;20109;-76
2022/08/09 12:35:29;;;;;;;3.30;0.90;;;;;;;;;;5006061;28;20480;-76
2022/08/09 12:37:56;;;;;;;5.63;1.38;;;;;;;;;;4985376;28;20171;-76
2022/08/09 12:40:26;;;;;;;5.90;0.70;;;;;;;;;;4954033;28;20388;-76
2022/08/09 12:42:52;;;;;;;1.45;0.63;;;;;;;;;;4955693;28;20031;-76
2022/08/09 12:45:19;;;;;;;2.55;0.80;;;;;;;;;;4971273;28;20176;-76
2022/08/09 12:47:49;;;;;;;2.35;0.70;;;;;;;;;;4985608;28;20029;-76
2022/08/09 12:50:18;;;;;;;1.63;0.77;;;;;;;;;;4970595;28;20114;-76
2022/08/09 12:52:45;;;;;;;1.92;0.57;;;;;;;;;;4970850;28;20038;-76
2022/08/09 12:55:11;;;;;;;4.07;0.60;;;;;;;;;;4969837;28;20122;-76
2022/08/09 12:57:38;;;;;;;7.78;0.90;;;;;;;;;;4954370;28;20027;-76
2022/08/09 13:00:18;;;;;;;10.45;1.08;;;;;;;;;;4953476;28;20026;-77
2022/08/09 13:02:53;;;;;;;3.30;0.50;;;;;;;;;;4953065;28;20454;-76
2022/08/09 13:05:20;;;;;;;3.08;0.50;;;;;;;;;;5002627;28;20041;-76
2022/08/09 13:08:05;;;;;;;3.55;0.65;;;;;;;;;;4951969;28;20468;-76
2022/08/09 13:10:31;;;;;;;2.78;0.75;;;;;;;;;;4969708;28;20488;-76
2022/08/09 13:12:59;;;;;;;2.28;0.65;;;;;;;;;;4952582;28;20039;-76
2022/08/09 13:15:25;;;;;;;2.08;0.60;;;;;;;;;;4952347;28;20027;-77
2022/08/09 13:17:51;;;;;;;3.20;0.77;;;;;;;;;;4969263;28;20039;-81
2022/08/09 13:20:18;;;;;;;5.68;0.82;;;;;;;;;;4970338;28;20038;-76
2022/08/09 13:22:51;;;;;;;6.78;1.23;;;;;;;;;;4967066;28;20117;-76
2022/08/09 13:25:17;;;;;;;1.35;0.63;;;;;;;;;;4952642;28;20518;-76
2022/08/09 13:27:43;;;;;;;4.10;1.17;;;;;;;;;;4964540;28;20031;-76
2022/08/09 13:30:17;;;;;;;6.80;1.42;;;;;;;;;;4949561;28;20028;-77
2022/08/09 13:32:42;;;;;;;6.57;0.95;;;;;;;;;;4965348;28;20084;-77
2022/08/09 13:35:09;;;;;;;3.92;0.88;;;;;;;;;;4969769;28;20039;-77
2022/08/09 13:37:35;;;;;;;4.60;0.90;;;;;;;;;;4969711;28;20030;-76
2022/08/09 13:40:02;;;;;;;33.13;1.33;;;;;;;;;;4970341;28;20050;-77
2022/08/09 13:42:28;;;;;;;4.95;1.00;;;;;;;;;;5036057;28;20038;-77
2022/08/09 13:44:54;;;;;;;8.60;1.67;;;;;;;;;;4969321;28;20031;-76
2022/08/09 13:47:20;;;;;;;24.33;1.80;;;;;;;;;;4957848;28;20035;-76
2022/08/09 13:49:47;;;;;;;7.72;0.77;;;;;;;;;;4968626;28;20042;-76
2022/08/09 13:52:13;;;;;;;6.30;1.00;;;;;;;;;;4993680;28;20035;-76
2022/08/09 13:54:39;;;;;;;5.95;0.93;;;;;;;;;;4952600;28;20031;-77
2022/08/09 13:57:06;;;;;;;11.38;1.10;;;;;;;;;;4950919;28;20503;-77
2022/08/09 13:59:33;;;;;;;3.95;1.00;;;;;;;;;;5035326;28;20567;-77
2022/08/09 14:01:58;;;;;;;21.58;1.10;;;;;;;;;;4969138;28;20027;-77
2022/08/09 14:04:24;;;;;;;14.38;1.08;;;;;;;;;;4950808;28;20479;-76
2022/08/09 14:06:55;;;;;;;2.85;0.90;;;;;;;;;;4968870;28;20074;-78
2022/08/09 14:09:21;;;;;;;2.53;1.00;;;;;;;;;;4951439;28;20082;-76
2022/08/09 14:11:47;;;;;;;5.93;1.20;;;;;;;;;;4968590;28;20408;-76
2022/08/09 14:14:13;;;;;;;3.78;0.95;;;;;;;;;;4970876;28;20072;-76
2022/08/09 14:16:39;;;;;;;5.35;1.00;;;;;;;;;;4952276;28;20077;-76
2022/08/09 14:19:05;;;;;;;3.20;0.70;;;;;;;;;;4968154;28;20547;-76
2022/08/09 14:21:31;;;;;;;14.38;0.98;;;;;;;;;;4968763;28;20037;-76
2022/08/09 14:23:57;;;;;;;7.45;0.98;;;;;;;;;;4968952;28;20381;-76
2022/08/09 14:26:23;;;;;;;10.43;1.27;;;;;;;;;;4968033;28;20252;-77
2022/08/09 14:28:49;;;;;;;7.55;1.60;;;;;;;;;;4970691;28;20031;-85
2022/08/09 14:31:15;;;;;;;5.20;1.02;;;;;;;;;;4967317;28;20034;-76
2022/08/09 14:33:41;;;;;;;8.98;1.13;;;;;;;;;;4970998;28;20197;-76